Time;durP1;ratioP1;P1;durP2;ratioP2;P2;SDS_P1;SDS_P2;PMS_P1;PMS_P2;Temp;Humidity;BMP_temperature;BMP_pressure;BME280_temperature;BME280_humidity;BME280_pressure;Samples;Min_cycle;Max_cycle;Signal;HPM_P1;HPM_P2
2023/03/23 00:02:29;;;;;;;0.40;0.40;;;11.40;99.90;;;;;;6190222;23;20507;-83
2023/03/23 00:04:55;;;;;;;0.40;0.40;;;11.60;99.90;;;;;;6214215;23;20079;-83
2023/03/23 00:07:27;;;;;;;0.38;0.38;;;11.60;99.90;;;;;;6214637;23;20411;-83
2023/03/23 00:09:54;;;;;;;0.40;0.40;;;11.40;99.90;;;;;;6214572;23;20512;-84
2023/03/23 00:12:28;;;;;;;0.50;0.50;;;11.50;99.90;;;;;;6214603;23;20012;-83
2023/03/23 00:14:55;;;;;;;0.30;0.30;;;11.50;99.90;;;;;;6189437;23;20016;-84
2023/03/23 00:17:23;;;;;;;0.32;0.32;;;11.50;99.90;;;;;;6189343;23;20012;-83
2023/03/23 00:19:50;;;;;;;0.30;0.30;;;11.50;99.90;;;;;;6240977;23;20027;-83
2023/03/23 00:22:19;;;;;;;0.30;0.30;;;11.50;99.90;;;;;;6189403;23;20016;-84
2023/03/23 00:24:45;;;;;;;0.40;0.40;;;11.50;99.90;;;;;;6214936;23;20040;-83
2023/03/23 00:27:14;;;;;;;0.40;0.40;;;11.60;99.90;;;;;;6216418;23;20019;-83
2023/03/23 00:29:41;;;;;;;0.40;0.40;;;11.50;99.90;;;;;;6214521;23;20067;-83
2023/03/23 00:32:12;;;;;;;0.38;0.38;;;11.60;99.90;;;;;;6216475;23;20012;-83
2023/03/23 00:34:40;;;;;;;0.40;0.40;;;11.40;99.90;;;;;;6214564;23;20072;-83
2023/03/23 00:37:07;;;;;;;0.38;0.38;;;11.50;99.90;;;;;;6189421;23;20017;-83
2023/03/23 00:39:36;;;;;;;0.40;0.40;;;11.40;99.90;;;;;;6214806;23;20017;-83
2023/03/23 00:42:05;;;;;;;0.40;0.40;;;11.50;99.90;;;;;;6189574;23;20013;-83
2023/03/23 00:44:34;;;;;;;0.30;0.30;;;11.40;99.90;;;;;;6189585;23;20019;-83
2023/03/23 00:47:02;;;;;;;0.30;0.30;;;11.60;99.90;;;;;;6214960;23;20024;-83
2023/03/23 00:49:28;;;;;;;0.30;0.30;;;11.50;99.90;;;;;;6240113;23;20009;-84
2023/03/23 00:51:56;;;;;;;0.35;0.35;;;11.50;99.90;;;;;;6214789;23;20013;-83
2023/03/23 00:54:23;;;;;;;0.40;0.40;;;11.40;99.90;;;;;;6213607;23;20016;-83
2023/03/23 00:56:50;;;;;;;0.32;0.32;;;11.50;99.90;;;;;;6214905;23;20009;-83
2023/03/23 00:59:16;;;;;;;0.30;0.30;;;11.40;99.90;;;;;;6188797;23;20019;-83
2023/03/23 01:01:46;;;;;;;0.30;0.30;;;11.50;99.90;;;;;;6216118;23;20019;-83
2023/03/23 01:04:12;;;;;;;0.30;0.30;;;11.60;99.90;;;;;;6188545;23;20013;-83
2023/03/23 01:06:39;;;;;;;0.30;0.30;;;11.50;99.90;;;;;;6240222;23;20012;-83
2023/03/23 01:09:14;;;;;;;0.30;0.30;;;11.50;99.90;;;;;;6189201;23;20098;-83
2023/03/23 01:11:44;;;;;;;0.30;0.30;;;11.60;99.90;;;;;;6214666;23;20019;-83
2023/03/23 01:14:12;;;;;;;0.40;0.40;;;11.60;99.90;;;;;;6214163;23;20024;-83
2023/03/23 01:16:37;;;;;;;0.40;0.40;;;11.50;99.90;;;;;;6214416;23;20071;-83
2023/03/23 01:19:03;;;;;;;0.40;0.40;;;11.40;99.90;;;;;;6214121;23;20028;-83
2023/03/23 01:21:29;;;;;;;0.40;0.40;;;11.50;99.90;;;;;;6189453;23;20017;-83
2023/03/23 01:23:55;;;;;;;0.40;0.40;;;11.60;99.90;;;;;;6189192;23;20020;-83
2023/03/23 01:26:22;;;;;;;0.40;0.40;;;11.50;99.90;;;;;;6215585;23;20013;-83
2023/03/23 01:28:49;;;;;;;0.30;0.30;;;11.40;99.90;;;;;;6214059;23;20017;-83
2023/03/23 01:31:20;;;;;;;0.30;0.30;;;11.50;99.90;;;;;;6190703;23;20008;-83
2023/03/23 01:33:48;;;;;;;0.30;0.30;;;11.60;99.90;;;;;;6192149;23;20377;-83
2023/03/23 01:36:18;;;;;;;0.30;0.30;;;11.50;99.90;;;;;;6190943;23;20091;-83
2023/03/23 01:38:45;;;;;;;0.30;0.30;;;11.60;99.90;;;;;;6190663;23;20009;-84
2023/03/23 01:41:12;;;;;;;0.20;0.20;;;11.60;99.90;;;;;;6190897;23;20040;-83
2023/03/23 01:43:54;;;;;;;0.20;0.20;;;11.60;99.90;;;;;;6241750;23;20016;-83
2023/03/23 01:46:22;;;;;;;0.30;0.30;;;11.50;99.90;;;;;;6216361;23;20005;-83
2023/03/23 01:48:50;;;;;;;0.30;0.30;;;11.50;99.90;;;;;;6190933;23;20024;-83
2023/03/23 01:51:18;;;;;;;0.30;0.30;;;11.60;99.90;;;;;;6217795;23;20329;-83
2023/03/23 01:53:52;;;;;;;0.30;0.30;;;11.50;99.90;;;;;;6241476;23;20083;-83
2023/03/23 01:56:24;;;;;;;0.30;0.30;;;11.50;99.90;;;;;;6190625;23;20067;-83
2023/03/23 01:58:52;;;;;;;0.30;0.30;;;11.50;99.90;;;;;;6190977;23;20017;-84
2023/03/23 02:01:18;;;;;;;0.30;0.30;;;11.50;99.90;;;;;;6217733;23;20051;-84
2023/03/23 02:03:45;;;;;;;0.40;0.40;;;11.50;99.90;;;;;;6217797;23;20020;-84
2023/03/23 02:06:11;;;;;;;0.30;0.30;;;11.50;99.90;;;;;;6215661;23;20441;-84
2023/03/23 02:08:38;;;;;;;0.35;0.35;;;11.60;99.90;;;;;;6190501;23;20012;-84
2023/03/23 02:11:18;;;;;;;0.30;0.30;;;11.60;99.90;;;;;;6216178;23;20012;-84
2023/03/23 02:13:44;;;;;;;;;;;11.60;99.90;;;;;;6190957;23;20044;-84
2023/03/23 02:16:18;;;;;;;0.47;0.47;;;11.60;99.90;;;;;;6190579;23;19912;-84
2023/03/23 02:18:47;;;;;;;0.30;0.30;;;11.70;99.90;;;;;;6241422;23;20128;-84
2023/03/23 02:21:26;;;;;;;0.40;0.40;;;11.50;99.90;;;;;;6215588;23;20008;-84
2023/03/23 02:24:12;;;;;;;0.40;0.40;;;11.50;99.90;;;;;;6240914;23;20012;-84
2023/03/23 02:26:54;;;;;;;0.30;0.30;;;11.60;99.90;;;;;;6169907;23;20013;-84
2023/03/23 02:29:55;;;;;;;0.38;0.38;;;11.50;99.90;;;;;;6190715;23;20146;-84
2023/03/23 02:32:23;;;;;;;0.30;0.30;;;11.50;99.90;;;;;;6170718;23;20043;-84
2023/03/23 02:34:53;;;;;;;0.30;0.30;;;11.60;99.90;;;;;;6241243;23;20020;-84
2023/03/23 02:37:43;;;;;;;0.40;0.40;;;11.60;99.90;;;;;;6215400;23;20016;-83
2023/03/23 02:40:23;;;;;;;0.40;0.40;;;11.60;99.90;;;;;;6189592;23;20028;-84
2023/03/23 02:42:52;;;;;;;0.40;0.40;;;11.60;99.90;;;;;;6190164;23;20024;-83
2023/03/23 02:45:19;;;;;;;0.40;0.40;;;11.60;99.90;;;;;;6215770;23;20039;-83
2023/03/23 02:47:46;;;;;;;0.40;0.40;;;11.70;99.90;;;;;;6190484;23;20011;-84
2023/03/23 02:50:15;;;;;;;0.38;0.38;;;11.70;99.90;;;;;;6215181;23;20012;-84
2023/03/23 02:52:43;;;;;;;0.30;0.30;;;11.60;99.90;;;;;;6240940;23;20023;-83
2023/03/23 02:55:11;;;;;;;0.30;0.30;;;11.60;99.90;;;;;;6215086;23;20035;-83
2023/03/23 02:57:37;;;;;;;0.20;0.20;;;11.60;99.90;;;;;;6215126;23;20013;-83
2023/03/23 03:00:10;;;;;;;0.47;0.47;;;11.60;99.90;;;;;;6189674;23;20022;-83
2023/03/23 03:02:52;;;;;;;0.30;0.30;;;11.70;99.90;;;;;;6211375;23;20020;-84
2023/03/23 03:05:46;;;;;;;0.40;0.40;;;11.60;99.90;;;;;;6190153;23;20005;-83
2023/03/23 03:08:41;;;;;;;0.40;0.40;;;11.60;99.90;;;;;;6215401;23;20015;-83
2023/03/23 03:11:31;;;;;;;0.40;0.40;;;11.60;99.90;;;;;;6190027;23;20009;-83
2023/03/23 03:14:16;;;;;;;;;;;11.50;99.90;;;;;;6215200;23;20385;-83
2023/03/23 03:16:50;;;;;;;0.40;0.40;;;11.50;99.90;;;;;;6215977;23;19966;-83
2023/03/23 03:19:42;;;;;;;0.38;0.38;;;11.60;99.90;;;;;;6215727;23;20048;-83
2023/03/23 03:22:08;;;;;;;0.32;0.32;;;11.60;99.90;;;;;;6215071;23;20492;-83
2023/03/23 03:24:38;;;;;;;0.40;0.40;;;11.60;99.90;;;;;;6214944;23;20095;-83
2023/03/23 03:27:24;;;;;;;0.40;0.40;;;11.50;99.90;;;;;;6214966;23;20092;-83
2023/03/23 03:29:56;;;;;;;0.40;0.40;;;11.60;99.90;;;;;;6189801;23;20027;-82
2023/03/23 03:32:33;;;;;;;0.28;0.28;;;11.50;99.90;;;;;;6212360;23;20460;-83
2023/03/23 03:37:37;;;;;;;0.40;0.40;;;11.60;99.90;;;;;;6217248;23;20047;-81
2023/03/23 03:40:10;;;;;;;0.25;0.25;;;11.50;99.90;;;;;;6215423;23;20023;-83
2023/03/23 03:42:40;;;;;;;0.32;0.32;;;11.60;99.90;;;;;;6189784;23;20024;-83
2023/03/23 03:45:10;;;;;;;0.40;0.40;;;11.60;99.90;;;;;;6214722;23;20017;-83
2023/03/23 03:47:36;;;;;;;0.33;0.33;;;11.60;99.90;;;;;;6190165;23;20015;-83
2023/03/23 03:50:02;;;;;;;0.40;0.40;;;11.60;99.90;;;;;;6215650;23;20099;-83
2023/03/23 03:52:28;;;;;;;0.40;0.40;;;11.70;99.90;;;;;;6214441;23;20441;-82
2023/03/23 03:54:55;;;;;;;0.32;0.32;;;11.70;99.90;;;;;;6189565;23;20013;-83
2023/03/23 03:57:21;;;;;;;0.30;0.30;;;11.70;99.90;;;;;;6214571;23;20083;-82
2023/03/23 03:59:47;;;;;;;0.40;0.40;;;11.70;99.90;;;;;;6214529;23;20090;-82
2023/03/23 04:02:16;;;;;;;0.30;0.30;;;11.70;99.90;;;;;;6189707;23;20012;-83
2023/03/23 04:04:43;;;;;;;0.40;0.40;;;11.70;99.90;;;;;;6189598;23;20012;-83
2023/03/23 04:07:10;;;;;;;0.40;0.40;;;11.70;99.90;;;;;;6214560;23;20056;-81
2023/03/23 04:09:38;;;;;;;0.40;0.40;;;11.80;99.90;;;;;;6214565;23;20025;-82
2023/03/23 04:12:04;;;;;;;0.30;0.30;;;11.80;99.90;;;;;;6215053;23;20023;-81
2023/03/23 04:14:30;;;;;;;0.40;0.40;;;11.80;99.90;;;;;;6214822;23;20013;-81
2023/03/23 04:16:56;;;;;;;0.40;0.40;;;11.80;99.90;;;;;;6189295;23;20385;-81
2023/03/23 04:19:28;;;;;;;0.40;0.40;;;11.80;99.90;;;;;;6214234;23;20023;-81
2023/03/23 04:21:54;;;;;;;0.40;0.40;;;11.90;99.90;;;;;;6189368;23;20009;-83
2023/03/23 04:24:24;;;;;;;0.40;0.40;;;11.90;99.90;;;;;;6239650;23;20013;-82
2023/03/23 04:26:51;;;;;;;0.30;0.30;;;11.90;99.90;;;;;;6189326;23;20020;-82
2023/03/23 04:29:19;;;;;;;0.40;0.40;;;11.90;99.90;;;;;;6214328;23;20043;-83
2023/03/23 04:31:45;;;;;;;0.30;0.30;;;11.90;99.90;;;;;;6189808;23;20052;-83
2023/03/23 04:34:14;;;;;;;0.30;0.30;;;11.90;99.90;;;;;;6214813;23;20019;-83
2023/03/23 04:36:40;;;;;;;0.30;0.30;;;12.00;99.90;;;;;;6189056;23;20016;-83
2023/03/23 04:39:09;;;;;;;0.30;0.30;;;12.00;99.90;;;;;;6189202;23;20023;-83
2023/03/23 04:41:39;;;;;;;0.30;0.30;;;11.90;99.90;;;;;;6214764;23;20009;-83
2023/03/23 04:44:06;;;;;;;0.38;0.38;;;11.90;99.90;;;;;;6189166;23;20096;-83
2023/03/23 04:46:32;;;;;;;0.38;0.38;;;12.00;99.90;;;;;;6214798;23;20047;-83
2023/03/23 04:48:59;;;;;;;0.40;0.40;;;11.90;99.90;;;;;;6210276;23;20032;-83
2023/03/23 04:51:27;;;;;;;0.30;0.30;;;12.00;99.90;;;;;;6214447;23;20021;-84
2023/03/23 04:53:54;;;;;;;0.30;0.30;;;11.90;99.90;;;;;;6214390;23;20012;-84
2023/03/23 04:56:22;;;;;;;0.40;0.40;;;12.00;99.90;;;;;;6214709;23;20005;-82
2023/03/23 04:58:48;;;;;;;0.50;0.50;;;12.00;99.90;;;;;;6188965;23;20013;-81
2023/03/23 05:01:14;;;;;;;0.40;0.40;;;12.00;99.90;;;;;;6209866;23;20319;-81
2023/03/23 05:03:43;;;;;;;0.40;0.40;;;12.00;99.90;;;;;;6214374;23;20009;-83
2023/03/23 05:06:09;;;;;;;0.30;0.30;;;11.90;99.90;;;;;;6215720;23;20027;-81
2023/03/23 05:08:38;;;;;;;0.40;0.40;;;11.90;99.90;;;;;;6218014;23;20012;-80
2023/03/23 05:11:05;;;;;;;0.75;0.60;;;11.70;99.90;;;;;;6218094;23;20012;-75
2023/03/23 05:13:31;;;;;;;6.45;1.45;;;11.40;99.90;;;;;;6218155;23;20118;-79
2023/03/23 05:15:57;;;;;;;0.32;0.32;;;10.80;99.90;;;;;;6217615;23;20009;-76
2023/03/23 05:18:23;;;;;;;0.30;0.30;;;9.90;99.90;;;;;;6218210;23;20063;-74
2023/03/23 05:20:52;;;;;;;0.30;0.30;;;9.40;99.90;;;;;;6217987;23;20418;-74
2023/03/23 05:23:20;;;;;;;0.30;0.30;;;9.70;99.90;;;;;;6217972;23;20009;-76
2023/03/23 05:25:53;;;;;;;0.30;0.30;;;10.00;99.90;;;;;;6218232;23;20036;-76
2023/03/23 05:28:19;;;;;;;0.30;0.30;;;9.50;99.90;;;;;;6217948;23;20043;-73
2023/03/23 05:30:44;;;;;;;0.30;0.30;;;9.90;99.90;;;;;;6217745;23;20009;-73
2023/03/23 05:33:10;;;;;;;0.30;0.30;;;10.10;99.90;;;;;;6217786;23;20016;-76
2023/03/23 05:35:36;;;;;;;0.30;0.30;;;10.20;99.90;;;;;;6217336;23;20021;-73
2023/03/23 05:38:01;;;;;;;0.20;0.20;;;10.00;99.90;;;;;;6215875;23;20021;-74
2023/03/23 05:40:27;;;;;;;0.20;0.20;;;9.60;99.90;;;;;;6190743;23;20019;-75
2023/03/23 05:42:58;;;;;;;0.40;0.40;;;9.50;99.90;;;;;;6217664;23;20016;-76
2023/03/23 05:45:26;;;;;;;0.40;0.40;;;9.50;99.90;;;;;;6215840;23;20016;-75
2023/03/23 05:47:52;;;;;;;0.40;0.40;;;9.50;99.90;;;;;;6190704;23;20023;-77
2023/03/23 05:50:18;;;;;;;0.30;0.30;;;9.70;99.90;;;;;;6217566;23;20095;-74
2023/03/23 05:52:44;;;;;;;0.40;0.40;;;9.70;99.90;;;;;;6215839;23;20071;-74
2023/03/23 05:55:10;;;;;;;0.32;0.32;;;10.20;99.90;;;;;;6241433;23;20555;-73
2023/03/23 05:57:36;;;;;;;0.35;0.35;;;10.10;99.90;;;;;;6217538;23;20065;-72
2023/03/23 06:00:11;;;;;;;0.30;0.30;;;10.20;99.90;;;;;;6215561;23;20377;-73
2023/03/23 06:02:37;;;;;;;0.40;0.40;;;9.90;99.90;;;;;;6216183;23;20013;-72
2023/03/23 06:05:02;;;;;;;0.40;0.40;;;9.80;99.90;;;;;;6217698;23;20015;-76
2023/03/23 06:07:28;;;;;;;0.30;0.30;;;10.10;99.90;;;;;;6190569;23;20326;-74
2023/03/23 06:09:54;;;;;;;0.30;0.30;;;9.80;99.90;;;;;;6217126;23;20016;-77
2023/03/23 06:12:20;;;;;;;0.40;0.40;;;10.10;99.90;;;;;;6240799;23;20040;-77
2023/03/23 06:14:48;;;;;;;0.40;0.40;;;10.10;99.90;;;;;;6190428;23;20104;-79
2023/03/23 06:17:16;;;;;;;0.40;0.40;;;9.50;99.90;;;;;;6215275;23;20017;-76
2023/03/23 06:19:41;;;;;;;0.38;0.38;;;10.00;99.90;;;;;;6217336;23;20083;-78
2023/03/23 06:22:07;;;;;;;0.30;0.30;;;9.90;99.90;;;;;;6217324;23;20090;-79
2023/03/23 06:24:34;;;;;;;0.40;0.40;;;9.40;99.90;;;;;;6215917;23;20052;-79
2023/03/23 06:26:59;;;;;;;0.40;0.40;;;9.80;99.90;;;;;;6215465;23;20090;-76
2023/03/23 06:29:25;;;;;;;0.38;0.38;;;9.40;99.90;;;;;;6215425;23;20445;-77
2023/03/23 06:31:57;;;;;;;0.30;0.30;;;9.50;99.90;;;;;;6240691;23;20107;-77
2023/03/23 06:34:23;;;;;;;0.35;0.35;;;9.50;99.90;;;;;;6215679;23;20020;-77
2023/03/23 06:36:48;;;;;;;0.30;0.30;;;9.60;99.90;;;;;;6190042;23;20016;-76
2023/03/23 06:39:15;;;;;;;0.30;0.30;;;10.00;99.90;;;;;;6215221;23;20024;-77
2023/03/23 06:41:41;;;;;;;0.40;0.40;;;9.90;99.90;;;;;;6217189;23;20015;-77
2023/03/23 06:44:07;;;;;;;0.40;0.40;;;9.90;99.90;;;;;;6215713;23;20012;-77
2023/03/23 06:46:32;;;;;;;0.30;0.30;;;10.00;99.90;;;;;;6190503;23;20008;-76
2023/03/23 06:48:58;;;;;;;0.50;0.50;;;10.00;99.90;;;;;;6215575;23;20087;-75
2023/03/23 06:51:24;;;;;;;0.38;0.38;;;10.10;99.90;;;;;;6216991;23;20084;-76
2023/03/23 06:53:49;;;;;;;0.40;0.40;;;10.10;99.90;;;;;;6215592;23;20017;-76
2023/03/23 06:56:15;;;;;;;0.40;0.40;;;9.90;99.90;;;;;;6190072;23;20015;-77
2023/03/23 06:58:41;;;;;;;0.40;0.40;;;10.00;99.90;;;;;;6189943;23;20020;-76
2023/03/23 07:01:09;;;;;;;0.50;0.50;;;10.10;99.90;;;;;;6214970;23;20017;-73
2023/03/23 07:03:35;;;;;;;0.40;0.40;;;10.00;99.90;;;;;;6189951;23;20330;-71
2023/03/23 07:06:01;;;;;;;0.30;0.30;;;10.10;99.90;;;;;;6216595;23;20013;-72
2023/03/23 07:08:27;;;;;;;0.50;0.50;;;10.10;99.90;;;;;;6216600;23;20012;-72
2023/03/23 07:10:54;;;;;;;0.50;0.50;;;10.10;99.90;;;;;;6216442;23;20016;-72
2023/03/23 07:13:21;;;;;;;0.40;0.40;;;10.20;99.90;;;;;;6216542;23;20016;-72
2023/03/23 07:15:48;;;;;;;0.50;0.50;;;10.40;99.90;;;;;;6216819;23;20015;-72
2023/03/23 07:18:14;;;;;;;0.50;0.50;;;10.40;99.90;;;;;;6214868;23;20012;-71
2023/03/23 07:20:40;;;;;;;0.35;0.35;;;10.50;99.90;;;;;;6189830;23;20511;-72
2023/03/23 07:23:06;;;;;;;0.40;0.40;;;10.50;99.90;;;;;;6216713;23;20032;-71
2023/03/23 07:25:36;;;;;;;0.40;0.40;;;10.60;99.90;;;;;;6189879;23;20016;-72
2023/03/23 07:28:03;;;;;;;0.50;0.50;;;10.70;99.90;;;;;;6214481;23;20023;-72
2023/03/23 07:30:29;;;;;;;0.30;0.30;;;10.80;99.90;;;;;;6190103;23;20012;-72
2023/03/23 07:32:56;;;;;;;0.40;0.40;;;10.60;99.90;;;;;;6214767;23;20023;-72
2023/03/23 07:35:22;;;;;;;0.40;0.40;;;10.70;99.90;;;;;;6214541;23;20017;-72
2023/03/23 07:37:48;;;;;;;0.45;0.45;;;10.70;99.90;;;;;;6214795;23;20020;-72
2023/03/23 07:40:15;;;;;;;0.60;0.60;;;10.70;99.90;;;;;;6216451;23;20016;-72
2023/03/23 07:42:45;;;;;;;0.40;0.40;;;10.70;99.90;;;;;;6216548;23;20012;-72
2023/03/23 07:45:13;;;;;;;0.40;0.40;;;11.00;99.90;;;;;;6216591;23;20044;-72
2023/03/23 07:47:39;;;;;;;0.52;0.52;;;11.10;99.90;;;;;;6214635;23;20028;-71
2023/03/23 07:50:06;;;;;;;0.50;0.50;;;11.30;99.90;;;;;;6189519;23;20021;-72
2023/03/23 07:52:33;;;;;;;0.40;0.40;;;11.50;99.90;;;;;;6189562;23;20063;-71
2023/03/23 07:55:01;;;;;;;0.40;0.40;;;11.50;99.90;;;;;;6215692;23;20015;-71
2023/03/23 07:57:27;;;;;;;0.40;0.40;;;11.40;99.90;;;;;;6214934;23;20082;-71
2023/03/23 07:59:52;;;;;;;0.40;0.40;;;11.30;99.90;;;;;;6214460;23;20080;-71
2023/03/23 08:02:18;;;;;;;0.50;0.50;;;11.30;99.90;;;;;;6189494;23;20048;-73
2023/03/23 08:04:44;;;;;;;0.50;0.50;;;11.60;99.90;;;;;;6214902;23;20453;-75
2023/03/23 08:07:15;;;;;;;0.50;0.50;;;11.70;99.90;;;;;;6189447;23;20047;-74
2023/03/23 08:09:40;;;;;;;0.60;0.60;;;11.80;99.90;;;;;;6189429;23;20467;-75
2023/03/23 08:12:06;;;;;;;0.57;0.57;;;11.90;99.90;;;;;;6239675;23;20095;-74
2023/03/23 08:14:32;;;;;;;0.57;0.57;;;11.80;99.90;;;;;;6216142;23;20070;-70
2023/03/23 08:16:58;;;;;;;0.50;0.50;;;11.70;99.90;;;;;;6214819;23;20103;-70
2023/03/23 08:19:24;;;;;;;0.50;0.50;;;11.60;99.90;;;;;;6216126;23;20009;-71
2023/03/23 08:21:50;;;;;;;0.50;0.50;;;11.60;99.90;;;;;;6216360;23;20062;-70
2023/03/23 08:24:16;;;;;;;0.60;0.60;;;11.50;99.90;;;;;;6239616;23;20391;-71
2023/03/23 08:26:42;;;;;;;0.60;0.60;;;11.50;99.90;;;;;;6214363;23;20015;-77
2023/03/23 08:29:08;;;;;;;0.50;0.50;;;11.50;99.90;;;;;;6214275;23;20009;-72
2023/03/23 08:31:35;;;;;;;0.50;0.50;;;11.70;99.90;;;;;;6214268;23;20017;-72
2023/03/23 08:34:02;;;;;;;0.60;0.60;;;11.70;99.90;;;;;;6189241;23;20083;-70
2023/03/23 08:36:28;;;;;;;0.60;0.60;;;11.60;99.90;;;;;;6215546;23;20506;-72
2023/03/23 08:38:54;;;;;;;0.50;0.50;;;11.60;99.90;;;;;;6214169;23;20017;-72
2023/03/23 08:41:20;;;;;;;0.60;0.60;;;11.70;99.90;;;;;;6189196;23;20020;-72
2023/03/23 08:43:46;;;;;;;0.50;0.50;;;11.60;99.90;;;;;;6214291;23;20008;-71
2023/03/23 08:46:12;;;;;;;0.60;0.60;;;11.60;99.90;;;;;;6214258;23;20013;-71
2023/03/23 08:48:38;;;;;;;0.50;0.50;;;11.70;99.90;;;;;;6215735;23;20012;-72
2023/03/23 08:51:06;;;;;;;0.52;0.52;;;11.60;99.90;;;;;;6216262;23;20087;-71
2023/03/23 08:53:33;;;;;;;0.50;0.50;;;11.60;99.90;;;;;;6214151;23;20524;-71
2023/03/23 08:56:10;;;;;;;0.55;0.55;;;11.60;99.90;;;;;;6214194;23;20017;-71
2023/03/23 08:58:38;;;;;;;0.47;0.47;;;11.70;99.90;;;;;;6215997;23;20016;-71
2023/03/23 09:01:06;;;;;;;0.57;0.57;;;11.80;99.90;;;;;;6214074;23;20020;-71
2023/03/23 09:03:33;;;;;;;0.50;0.50;;;11.90;99.90;;;;;;6214064;23;20009;-71
2023/03/23 09:06:01;;;;;;;0.40;0.40;;;12.00;99.90;;;;;;6214153;23;20131;-72
2023/03/23 09:08:28;;;;;;;0.40;0.40;;;12.30;99.90;;;;;;6214519;23;20020;-71
2023/03/23 09:10:58;;;;;;;0.60;0.60;;;12.10;99.90;;;;;;6189009;23;20013;-72
2023/03/23 09:13:24;;;;;;;0.52;0.52;;;12.10;99.90;;;;;;6214600;23;20083;-72
2023/03/23 09:15:50;;;;;;;0.60;0.60;;;12.20;99.90;;;;;;6215965;23;20075;-73
2023/03/23 09:18:16;;;;;;;0.50;0.50;;;12.20;99.90;;;;;;6215847;23;20085;-72
2023/03/23 09:20:43;;;;;;;0.60;0.60;;;12.10;99.90;;;;;;6214162;23;20445;-72
2023/03/23 09:23:09;;;;;;;0.52;0.52;;;12.30;99.90;;;;;;6215093;23;20008;-72
2023/03/23 09:25:35;;;;;;;0.57;0.57;;;12.40;99.90;;;;;;6215581;23;20088;-72
2023/03/23 09:28:01;;;;;;;0.60;0.60;;;12.40;99.90;;;;;;6214170;23;20401;-72
2023/03/23 09:30:32;;;;;;;0.60;0.60;;;12.40;99.90;;;;;;6214003;23;20027;-72
2023/03/23 09:33:01;;;;;;;0.60;0.60;;;12.50;99.90;;;;;;6214139;23;20020;-73
2023/03/23 09:35:27;;;;;;;0.60;0.60;;;12.50;99.90;;;;;;6213819;23;20013;-71
2023/03/23 09:37:54;;;;;;;0.40;0.40;;;12.30;99.90;;;;;;6215996;23;20024;-72
2023/03/23 09:40:27;;;;;;;0.57;0.57;;;12.30;99.90;;;;;;6189239;23;20038;-72
2023/03/23 09:43:21;;;;;;;0.70;0.70;;;12.30;99.90;;;;;;6215846;23;20030;-72
2023/03/23 09:46:17;;;;;;;0.60;0.60;;;12.20;99.90;;;;;;6188963;23;20016;-72
2023/03/23 09:48:56;;;;;;;0.50;0.50;;;12.10;99.90;;;;;;6188884;23;20052;-71
2023/03/23 09:51:51;;;;;;;0.70;0.70;;;12.20;99.90;;;;;;6214827;23;20019;-72
2023/03/23 09:54:43;;;;;;;0.60;0.60;;;12.40;99.90;;;;;;6215744;23;20013;-72
2023/03/23 09:57:26;;;;;;;0.60;0.60;;;12.50;99.90;;;;;;6190997;23;20013;-72
2023/03/23 10:00:05;;;;;;;0.70;0.70;;;12.60;99.90;;;;;;6217065;23;20449;-72
2023/03/23 10:02:40;;;;;;;0.70;0.70;;;12.60;99.90;;;;;;6215747;23;20019;-72
2023/03/23 10:05:31;;;;;;;0.70;0.70;;;12.90;99.90;;;;;;6215656;23;20071;-72
2023/03/23 10:07:56;;;;;;;;;;;12.70;99.90;;;;;;6218102;23;20071;-72
2023/03/23 10:10:31;;;;;;;0.60;0.60;;;12.70;99.90;;;;;;6215991;23;19912;-72
2023/03/23 10:13:16;;;;;;;0.50;0.50;;;12.80;99.90;;;;;;6217534;23;20375;-72
2023/03/23 10:15:43;;;;;;;0.60;0.60;;;12.90;99.90;;;;;;6190534;23;20012;-72
2023/03/23 10:18:13;;;;;;;0.60;0.60;;;12.90;99.90;;;;;;6215563;23;20024;-72
2023/03/23 10:20:46;;;;;;;;;;;13.00;99.90;;;;;;6218384;23;20031;-72
2023/03/23 10:23:33;;;;;;;0.50;0.50;;;13.20;99.90;;;;;;6215503;23;19924;-72
2023/03/23 10:26:17;;;;;;;0.60;0.60;;;13.20;99.90;;;;;;6215375;23;20143;-72
2023/03/23 10:28:56;;;;;;;0.50;0.50;;;13.10;99.90;;;;;;6240598;23;20020;-72
2023/03/23 10:31:34;;;;;;;0.50;0.50;;;12.80;99.90;;;;;;6215846;23;20043;-71
2023/03/23 10:34:08;;;;;;;0.50;0.50;;;12.50;99.90;;;;;;6215352;23;20493;-71
2023/03/23 10:36:55;;;;;;;0.60;0.60;;;12.50;99.90;;;;;;6215207;23;20088;-71
2023/03/23 10:39:24;;;;;;;0.60;0.60;;;12.30;99.90;;;;;;6190280;23;20023;-71
2023/03/23 10:41:49;;;;;;;0.52;0.52;;;12.20;99.90;;;;;;6215216;23;20437;-71
2023/03/23 10:44:25;;;;;;;0.60;0.60;;;12.10;99.90;;;;;;6215202;23;20051;-71
2023/03/23 10:46:56;;;;;;;0.50;0.50;;;12.10;99.90;;;;;;6215309;23;20005;-71
2023/03/23 10:49:47;;;;;;;0.50;0.50;;;12.10;99.90;;;;;;6215371;23;20020;-71
2023/03/23 10:52:36;;;;;;;0.50;0.50;;;12.30;99.90;;;;;;6215727;23;20336;-71
2023/03/23 10:55:13;;;;;;;0.60;0.60;;;12.20;99.90;;;;;;6215172;23;20017;-71
2023/03/23 10:57:42;;;;;;;0.55;0.55;;;12.40;99.90;;;;;;6240476;23;20017;-71
2023/03/23 11:00:18;;;;;;;0.50;0.50;;;12.60;99.90;;;;;;6216900;23;20024;-71
2023/03/23 11:03:02;;;;;;;0.50;0.50;;;12.60;99.90;;;;;;6216403;23;20363;-71
2023/03/23 11:05:42;;;;;;;0.50;0.50;;;12.70;99.90;;;;;;6217021;23;20017;-72
2023/03/23 11:08:13;;;;;;;0.50;0.50;;;13.00;99.90;;;;;;6215518;23;20013;-72
2023/03/23 11:10:50;;;;;;;0.57;0.57;;;13.20;99.90;;;;;;6189956;23;20353;-72
2023/03/23 11:13:17;;;;;;;0.50;0.50;;;13.40;99.90;;;;;;6215145;23;20020;-72
2023/03/23 11:15:46;;;;;;;0.60;0.60;;;13.50;99.90;;;;;;6216872;23;20059;-71
2023/03/23 11:18:40;;;;;;;0.50;0.50;;;13.80;99.90;;;;;;6216451;23;20453;-72
2023/03/23 11:21:08;;;;;;;0.40;0.40;;;13.90;99.90;;;;;;6216902;23;20063;-71
2023/03/23 11:23:41;;;;;;;0.50;0.50;;;13.60;99.90;;;;;;6216469;23;20499;-71
2023/03/23 11:26:31;;;;;;;0.45;0.45;;;13.60;99.90;;;;;;6191182;23;20004;-71
2023/03/23 11:29:05;;;;;;;0.40;0.40;;;13.70;99.90;;;;;;6215345;23;20013;-72
2023/03/23 11:31:38;;;;;;;0.40;0.40;;;14.00;99.90;;;;;;6216755;23;20016;-71
2023/03/23 11:34:17;;;;;;;0.43;0.43;;;14.00;99.90;;;;;;6189830;23;20091;-71
2023/03/23 11:36:57;;;;;;;0.50;0.50;;;13.80;99.90;;;;;;6216287;23;20024;-71
2023/03/23 11:39:29;;;;;;;0.50;0.50;;;14.00;99.90;;;;;;6239988;23;20067;-72
2023/03/23 11:41:58;;;;;;;0.47;0.47;;;14.20;99.90;;;;;;6214773;23;20083;-71
2023/03/23 11:44:31;;;;;;;0.50;0.50;;;14.30;99.90;;;;;;6189722;23;20017;-72
2023/03/23 11:47:27;;;;;;;0.40;0.40;;;14.20;99.90;;;;;;6216635;23;20012;-72
2023/03/23 11:50:12;;;;;;;0.40;0.40;;;14.00;99.90;;;;;;6216593;23;20048;-72
2023/03/23 11:53:18;;;;;;;0.50;0.50;;;13.90;99.90;;;;;;6216385;23;20063;-72
2023/03/23 11:55:45;;;;;;;0.40;0.40;;;13.50;99.90;;;;;;6142782;23;20051;-72
2023/03/23 11:58:16;;;;;;;0.50;0.50;;;13.40;99.90;;;;;;6216479;23;20071;-71
2023/03/23 12:01:01;;;;;;;0.40;0.40;;;13.50;99.90;;;;;;6216401;23;20013;-72
2023/03/23 12:03:50;;;;;;;0.57;0.57;;;13.90;99.90;;;;;;6216364;23;20083;-72
2023/03/23 12:06:31;;;;;;;0.47;0.47;;;13.90;99.90;;;;;;6189560;23;20016;-71
2023/03/23 12:09:10;;;;;;;0.43;0.43;;;14.10;99.90;;;;;;6216412;23;20376;-71
2023/03/23 12:12:10;;;;;;;0.40;0.40;;;13.90;99.90;;;;;;6214496;23;20047;-71
2023/03/23 12:14:48;;;;;;;;;;;13.70;99.90;;;;;;6214892;23;20282;-71
2023/03/23 12:17:17;;;;;;;0.50;0.50;;;13.60;99.90;;;;;;6215914;23;20316;-71
2023/03/23 12:20:10;;;;;;;0.47;0.47;;;13.80;99.90;;;;;;6216213;23;20016;-71
2023/03/23 12:23:04;;;;;;;0.30;0.30;;;13.90;99.90;;;;;;6214324;23;20013;-71
2023/03/23 12:25:29;;;;;;;0.50;0.50;;;14.20;99.90;;;;;;6215893;23;20475;-71
2023/03/23 12:28:01;;;;;;;0.50;0.50;;;14.10;99.90;;;;;;6215782;23;20013;-71
2023/03/23 12:30:46;;;;;;;0.45;0.45;;;13.80;99.90;;;;;;6216132;23;20062;-71
2023/03/23 12:33:33;;;;;;;0.47;0.47;;;14.00;99.90;;;;;;6214332;23;20017;-71
2023/03/23 12:36:18;;;;;;;0.47;0.47;;;14.10;99.90;;;;;;6189017;23;20521;-71
2023/03/23 12:38:59;;;;;;;0.30;0.30;;;13.80;99.90;;;;;;6214289;23;20024;-71
2023/03/23 12:41:38;;;;;;;0.50;0.50;;;13.50;99.90;;;;;;6239428;23;20074;-72
2023/03/23 12:44:14;;;;;;;0.40;0.40;;;13.90;99.90;;;;;;6216240;23;20078;-71
2023/03/23 12:46:49;;;;;;;0.50;0.50;;;14.00;99.90;;;;;;6215806;23;20444;-71
2023/03/23 12:49:34;;;;;;;0.50;0.50;;;13.80;99.90;;;;;;6189430;23;20017;-72
2023/03/23 12:52:02;;;;;;;0.30;0.30;;;13.60;99.90;;;;;;6214334;23;20314;-71
2023/03/23 12:54:43;;;;;;;0.50;0.50;;;13.30;99.90;;;;;;6189219;23;20380;-71
2023/03/23 12:57:17;;;;;;;0.50;0.50;;;13.60;99.90;;;;;;6214372;23;20459;-71
2023/03/23 13:00:12;;;;;;;0.50;0.50;;;13.70;99.90;;;;;;6215725;23;20437;-72
2023/03/23 13:02:41;;;;;;;0.40;0.40;;;13.90;99.90;;;;;;6214698;23;20088;-72
2023/03/23 13:05:13;;;;;;;0.40;0.40;;;13.60;99.90;;;;;;6215606;23;20040;-71
2023/03/23 13:07:47;;;;;;;0.40;0.40;;;13.40;99.90;;;;;;6214628;23;20325;-71
2023/03/23 13:10:24;;;;;;;0.50;0.50;;;13.30;99.90;;;;;;6189145;23;20146;-71
2023/03/23 13:12:52;;;;;;;0.60;0.60;;;13.30;99.90;;;;;;6214224;23;20100;-71